Time;durP1;ratioP1;P1;durP2;ratioP2;P2;SDS_P1;SDS_P2;PMS_P1;PMS_P2;Temp;Humidity;BMP_temperature;BMP_pressure;BME280_temperature;BME280_humidity;BME280_pressure;Samples;Min_cycle;Max_cycle;Signal;HPM_P1;HPM_P2
2022/05/16 00:01:28;;;;;;;3.20;1.30;;;;;;;8.77;65.41;97032.80;107855;1266;58304;-80
2022/05/16 00:03:59;;;;;;;4.20;1.80;;;;;;;8.88;65.70;97034.08;107837;1268;90499;-80
2022/05/16 00:06:30;;;;;;;2.80;1.70;;;;;;;9.09;65.64;97036.72;108008;1267;45456;-81
2022/05/16 00:09:01;;;;;;;3.90;1.90;;;;;;;9.26;65.43;97036.73;107874;1268;78968;-81
2022/05/16 00:11:33;;;;;;;4.50;1.60;;;;;;;9.29;65.11;97032.95;108040;1265;35302;-81
2022/05/16 00:14:05;;;;;;;2.50;1.50;;;;;;;9.22;65.07;97030.52;107935;1268;41386;-81
2022/05/16 00:16:36;;;;;;;4.30;1.70;;;;;;;9.13;64.97;97027.16;107975;1268;30684;-82
2022/05/16 00:19:07;;;;;;;4.40;1.90;;;;;;;9.12;65.38;97024.23;107971;1267;62865;-81
2022/05/16 00:21:38;;;;;;;5.20;2.00;;;;;;;9.21;65.33;97025.08;107916;1268;42502;-81
2022/05/16 00:24:09;;;;;;;4.50;1.80;;;;;;;9.24;65.35;97022.91;108013;1265;82727;-81
2022/05/16 00:26:41;;;;;;;6.10;2.10;;;;;;;9.27;65.22;97027.25;107983;1265;57543;-81
2022/05/16 00:29:11;;;;;;;4.50;1.40;;;;;;;9.27;65.13;97028.73;108075;1265;35577;-81
2022/05/16 00:31:42;;;;;;;3.80;1.70;;;;;;;9.20;65.14;97026.45;107975;1265;89181;-81
2022/05/16 00:34:13;;;;;;;3.90;1.90;;;;;;;9.13;65.50;97026.84;108047;1265;36649;-82
2022/05/16 00:36:47;;;;;;;2.90;1.30;;;;;;;9.08;65.72;97022.64;107996;1265;116000;-81
2022/05/16 00:39:20;;;;;;;2.00;1.40;;;;;;;8.95;65.90;97023.74;108111;1265;39992;-81
2022/05/16 00:42:01;;;;;;;3.00;1.60;;;;;;;8.95;66.00;97027.34;108160;1265;32981;-82
2022/05/16 00:44:33;;;;;;;4.70;2.30;;;;;;;9.00;66.11;97027.68;108105;1265;30559;-81
2022/05/16 00:47:04;;;;;;;5.80;2.20;;;;;;;9.08;65.88;97027.09;108049;1265;58774;-81
2022/05/16 00:49:38;;;;;;;3.80;2.00;;;;;;;9.06;65.85;97025.17;108060;1265;82946;-81
2022/05/16 00:52:14;;;;;;;6.50;2.20;;;;;;;8.99;65.88;97021.00;108067;1265;53538;-82
2022/05/16 00:54:49;;;;;;;2.50;1.40;;;;;;;9.02;65.99;97020.02;108000;1264;44149;-81
2022/05/16 00:57:24;;;;;;;2.90;1.60;;;;;;;9.06;65.89;97020.58;108117;1265;36808;-82
2022/05/16 00:59:59;;;;;;;2.70;1.70;;;;;;;9.03;65.91;97016.28;107970;1268;51815;-78
2022/05/16 01:05:20;;;;;;;3.40;1.60;;;;;;;9.17;65.81;97016.60;107836;1268;99214;-82
2022/05/16 01:07:51;;;;;;;3.40;1.90;;;;;;;9.16;65.84;97014.48;108049;1265;78794;-81
2022/05/16 01:10:24;;;;;;;4.20;1.70;;;;;;;9.16;65.61;97018.13;107917;1267;74843;-82
2022/05/16 01:12:55;;;;;;;6.10;1.80;;;;;;;9.09;65.54;97019.16;108184;1265;33348;-82
2022/05/16 01:15:34;;;;;;;3.60;1.90;;;;;;;9.09;65.52;97018.46;108099;1265;33055;-80
2022/05/16 01:18:07;;;;;;;5.10;1.80;;;;;;;9.09;65.65;97020.00;108023;1265;61467;-82
2022/05/16 01:21:00;;;;;;;4.70;1.50;;;;;;;9.12;65.54;97024.61;108009;1265;107093;-81
2022/05/16 01:23:36;;;;;;;3.70;1.80;;;;;;;8.86;65.63;97020.68;106843;1265;1623225;-81
2022/05/16 01:26:13;;;;;;;3.20;1.30;;;;;;;8.68;65.96;97021.64;108059;1267;44532;-81
2022/05/16 01:28:45;;;;;;;2.50;1.60;;;;;;;8.55;66.54;97023.56;108045;1267;42111;-81
2022/05/16 01:31:17;;;;;;;3.40;1.50;;;;;;;8.58;66.64;97022.79;107920;1267;33993;-82
2022/05/16 01:33:48;;;;;;;5.70;1.50;;;;;;;8.65;66.65;97019.63;107834;1267;65577;-81
2022/05/16 01:36:19;;;;;;;2.70;1.20;;;;;;;8.69;66.50;97019.84;107993;1267;58844;-81
2022/05/16 01:38:50;;;;;;;4.70;2.20;;;;;;;8.65;66.62;97021.26;108011;1268;47088;-81
2022/05/16 01:41:22;;;;;;;5.50;2.50;;;;;;;8.71;66.51;97019.54;108027;1265;83367;-82
2022/05/16 01:43:55;;;;;;;3.30;2.20;;;;;;;8.81;66.69;97014.69;108038;1267;34849;-82
2022/05/16 01:46:29;;;;;;;3.80;1.70;;;;;;;8.79;66.60;97016.79;107937;1266;49349;-81
2022/05/16 01:49:00;;;;;;;5.80;2.50;;;;;;;8.68;66.71;97023.12;107841;1267;69548;-81
2022/05/16 01:51:31;;;;;;;5.70;2.10;;;;;;;8.67;66.80;97020.36;107967;1268;89036;-81
2022/05/16 01:54:03;;;;;;;4.20;2.20;;;;;;;8.70;66.76;97021.48;108083;1268;32388;-81
2022/05/16 01:56:36;;;;;;;3.10;1.80;;;;;;;8.70;66.85;97024.02;108075;1265;51920;-82
2022/05/16 01:59:08;;;;;;;4.00;1.80;;;;;;;8.66;66.99;97023.42;108052;1265;59954;-82
2022/05/16 02:01:39;;;;;;;4.10;1.90;;;;;;;8.60;67.01;97025.73;107910;1268;52595;-82
2022/05/16 02:04:10;;;;;;;5.30;2.40;;;;;;;8.61;67.12;97018.59;107895;1266;43574;-82
2022/05/16 02:06:41;;;;;;;4.80;2.20;;;;;;;8.64;67.08;97020.98;107953;1265;82970;-82
2022/05/16 02:09:12;;;;;;;5.50;1.90;;;;;;;8.69;66.95;97022.11;106650;1265;1828927;-82
2022/05/16 02:11:43;;;;;;;4.00;2.00;;;;;;;8.73;66.92;97017.45;108105;1267;32889;-82
2022/05/16 02:14:14;;;;;;;4.80;2.60;;;;;;;8.76;67.10;97010.70;108055;1266;42481;-82
2022/05/16 02:16:46;;;;;;;4.90;2.50;;;;;;;8.75;67.09;97008.73;108095;1265;34270;-82
2022/05/16 02:19:18;;;;;;;4.00;2.20;;;;;;;8.74;67.37;97008.16;108004;1265;85739;-82
2022/05/16 02:24:40;;;;;;;4.80;2.30;;;;;;;8.64;67.28;97012.90;107911;1268;82564;-81
2022/05/16 02:27:13;;;;;;;6.90;2.50;;;;;;;8.68;67.21;97013.39;107793;1268;93867;-82
2022/05/16 02:29:44;;;;;;;7.60;2.50;;;;;;;8.70;67.36;97010.76;107869;1267;56589;-82
2022/05/16 02:32:16;;;;;;;4.90;2.70;;;;;;;8.63;67.21;97010.30;107864;1267;42256;-82
2022/05/16 02:34:47;;;;;;;3.80;2.20;;;;;;;8.60;67.18;97009.55;107821;1267;67604;-82
2022/05/16 02:37:18;;;;;;;4.90;2.50;;;;;;;8.59;67.32;97011.76;107909;1267;43281;-82
2022/05/16 02:39:49;;;;;;;5.00;2.20;;;;;;;8.65;67.20;97011.90;107996;1267;33266;-82
2022/05/16 02:42:20;;;;;;;3.80;2.10;;;;;;;8.73;67.26;97015.91;107964;1268;67482;-83
2022/05/16 02:44:53;;;;;;;4.70;2.10;;;;;;;8.81;67.06;97015.10;107866;1267;79196;-82
2022/05/16 02:47:25;;;;;;;3.20;2.10;;;;;;;8.85;66.93;97019.88;107989;1267;47065;-82
2022/05/16 02:49:56;;;;;;;3.40;2.00;;;;;;;9.02;67.02;97021.45;107937;1267;53944;-81
2022/05/16 02:52:27;;;;;;;6.00;2.10;;;;;;;9.14;66.54;97017.17;108025;1268;41358;-82
2022/05/16 02:55:00;;;;;;;4.60;2.40;;;;;;;9.18;66.34;97015.17;107893;1266;74339;-81
2022/05/16 02:57:32;;;;;;;4.60;2.20;;;;;;;9.23;66.23;97015.51;107906;1267;46391;-82
2022/05/16 03:00:04;;;;;;;5.30;2.40;;;;;;;9.29;66.15;97021.45;107867;1268;38484;-82
2022/05/16 03:02:35;;;;;;;5.20;2.40;;;;;;;9.30;66.04;97024.17;107816;1268;43214;-82
2022/05/16 03:05:10;;;;;;;4.80;2.30;;;;;;;9.36;65.93;97029.63;108035;1265;97295;-81
2022/05/16 03:07:41;;;;;;;6.20;2.30;;;;;;;9.41;65.77;97030.70;107877;1267;57586;-82
2022/05/16 03:10:15;;;;;;;3.70;2.10;;;;;;;9.42;65.61;97031.34;107887;1268;61287;-82
2022/05/16 03:12:49;;;;;;;4.80;2.20;;;;;;;9.41;65.61;97032.23;107816;1268;92798;-82
2022/05/16 03:15:21;;;;;;;4.50;2.30;;;;;;;9.42;65.71;97030.38;107951;1267;51587;-82
2022/05/16 03:17:52;;;;;;;4.10;2.30;;;;;;;9.43;65.59;97028.18;108001;1267;47994;-82
2022/05/16 03:20:23;;;;;;;5.80;2.30;;;;;;;9.42;65.62;97029.36;108137;1265;35113;-82
2022/05/16 03:22:54;;;;;;;3.80;2.00;;;;;;;9.42;65.65;97029.33;108131;1265;39299;-82
2022/05/16 03:25:25;;;;;;;7.80;2.60;;;;;;;9.46;65.68;97031.30;108130;1265;63569;-83
2022/05/16 03:27:56;;;;;;;4.00;2.10;;;;;;;9.49;65.55;97033.06;108101;1265;38307;-78
2022/05/16 03:30:28;;;;;;;3.30;1.70;;;;;;;9.50;65.53;97036.98;107994;1268;61422;-81
2022/05/16 03:32:59;;;;;;;4.90;2.30;;;;;;;9.55;65.46;97035.82;108060;1265;60448;-81
2022/05/16 03:35:30;;;;;;;4.70;2.20;;;;;;;9.65;65.45;97040.93;108056;1265;58449;-81
2022/05/16 03:38:01;;;;;;;4.70;2.20;;;;;;;9.68;65.30;97038.50;108020;1265;63595;-81
2022/05/16 03:40:45;;;;;;;4.50;2.00;;;;;;;9.72;65.25;97040.11;108075;1265;55981;-81
2022/05/16 03:43:19;;;;;;;4.80;2.40;;;;;;;9.77;65.23;97040.59;108055;1265;46839;-82
2022/05/16 03:45:50;;;;;;;5.20;2.80;;;;;;;9.80;65.23;97040.59;108135;1265;37736;-81
2022/05/16 03:48:21;;;;;;;5.70;2.30;;;;;;;9.84;65.22;97042.34;108146;1265;32293;-82
2022/05/16 03:50:52;;;;;;;6.00;2.30;;;;;;;9.90;65.34;97045.96;108152;1265;37873;-81
2022/05/16 03:53:23;;;;;;;5.30;2.60;;;;;;;9.96;65.29;97046.76;108115;1265;66354;-81
2022/05/16 03:55:54;;;;;;;5.80;2.60;;;;;;;10.01;65.34;97046.04;108133;1265;44714;-81
2022/05/16 03:58:25;;;;;;;4.80;2.50;;;;;;;10.07;65.34;97045.39;107928;1267;77186;-81
2022/05/16 04:00:56;;;;;;;6.20;2.40;;;;;;;10.14;65.29;97045.67;107925;1267;44456;-81
2022/05/16 04:03:27;;;;;;;6.40;2.90;;;;;;;10.22;65.39;97042.67;107925;1266;51843;-81
2022/05/16 04:05:58;;;;;;;4.90;2.60;;;;;;;10.32;65.29;97042.42;107995;1267;58322;-81
2022/05/16 04:08:29;;;;;;;5.90;2.70;;;;;;;10.40;65.16;97044.11;107928;1267;34972;-81
2022/05/16 04:11:01;;;;;;;5.30;2.50;;;;;;;10.49;64.97;97047.50;107756;1268;84687;-81
2022/05/16 04:13:33;;;;;;;5.00;2.80;;;;;;;10.61;64.77;97047.97;107986;1267;31385;-81
2022/05/16 04:16:05;;;;;;;6.50;2.90;;;;;;;10.74;64.72;97050.28;107844;1268;58243;-81
2022/05/16 04:18:37;;;;;;;5.50;2.70;;;;;;;10.86;64.60;97047.92;107971;1267;38199;-81
2022/05/16 04:21:08;;;;;;;6.00;3.20;;;;;;;10.97;64.30;97050.13;107927;1268;35389;-82
2022/05/16 04:23:39;;;;;;;6.80;2.50;;;;;;;11.07;64.12;97045.04;107934;1267;46959;-82
2022/05/16 04:26:10;;;;;;;4.80;2.90;;;;;;;11.18;63.80;97044.70;107997;1268;40667;-81
2022/05/16 04:28:41;;;;;;;6.60;2.80;;;;;;;11.28;63.55;97043.34;107926;1268;74810;-82
2022/05/16 04:31:12;;;;;;;5.60;2.80;;;;;;;11.35;63.43;97044.74;107882;1268;51434;-82
2022/05/16 04:33:42;;;;;;;6.20;2.50;;;;;;;11.42;63.27;97046.11;107978;1267;41864;-82
2022/05/16 04:36:11;;;;;;;;;;;;;;;11.51;63.02;97045.77;107883;1267;93784;-81
2022/05/16 04:38:42;;;;;;;6.20;3.30;;;;;;;11.57;62.71;97048.16;107948;1267;45105;-82
2022/05/16 04:44:02;;;;;;;6.20;3.10;;;;;;;11.81;62.45;97044.74;107878;1267;32862;-82
2022/05/16 04:46:32;;;;;;;7.30;3.20;;;;;;;12.03;62.07;97044.93;107857;1268;32740;-81
2022/05/16 04:49:04;;;;;;;7.30;3.90;;;;;;;12.24;61.70;97043.13;108040;1265;57976;-82
2022/05/16 04:51:35;;;;;;;5.10;3.10;;;;;;;12.68;61.25;97041.04;107923;1265;88763;-82
2022/05/16 04:54:06;;;;;;;5.10;3.00;;;;;;;14.35;60.64;97035.38;108077;1265;40678;-82
2022/05/16 04:56:37;;;;;;;6.70;3.20;;;;;;;16.71;56.97;97030.40;108097;1265;49180;-83
2022/05/16 04:59:08;;;;;;;7.90;3.50;;;;;;;18.27;53.39;97032.00;108089;1265;44264;-83
2022/05/16 05:01:41;;;;;;;5.60;2.60;;;;;;;19.34;48.41;97028.95;107997;1265;56842;-82
2022/05/16 05:04:12;;;;;;;7.00;2.80;;;;;;;19.57;46.27;97029.52;108107;1265;33140;-82
2022/05/16 05:06:43;;;;;;;7.00;2.80;;;;;;;19.79;45.43;97030.64;108112;1265;32547;-83
2022/05/16 05:09:14;;;;;;;5.10;2.80;;;;;;;20.62;43.81;97032.80;108079;1265;60212;-82
2022/05/16 05:14:36;;;;;;;6.20;2.90;;;;;;;22.10;41.96;97028.20;108061;1265;45895;-83
2022/05/16 05:17:10;;;;;;;7.10;3.20;;;;;;;22.65;40.73;97028.40;107973;1265;77756;-83
2022/05/16 05:19:42;;;;;;;6.10;3.10;;;;;;;23.47;40.35;97028.48;108119;1265;35796;-83
2022/05/16 05:22:13;;;;;;;6.80;3.20;;;;;;;24.13;39.17;97029.08;107969;1266;40879;-83
2022/05/16 05:24:44;;;;;;;6.50;2.80;;;;;;;25.27;38.69;97025.29;107913;1268;39008;-83
2022/05/16 05:27:15;;;;;;;4.90;3.00;;;;;;;26.13;36.95;97025.71;107956;1267;59831;-84
2022/05/16 05:29:47;;;;;;;6.30;3.00;;;;;;;26.78;35.90;97024.83;107989;1267;32825;-84
2022/05/16 05:32:18;;;;;;;5.90;2.90;;;;;;;27.64;35.15;97029.48;107875;1268;55353;-83
2022/05/16 05:34:49;;;;;;;5.00;3.00;;;;;;;28.24;33.35;97032.00;108006;1267;42314;-83
2022/05/16 05:37:20;;;;;;;5.20;2.60;;;;;;;28.48;32.82;97029.54;108069;1265;46770;-83
2022/05/16 05:39:52;;;;;;;7.30;3.10;;;;;;;28.71;33.01;97032.95;108093;1265;33187;-84
2022/05/16 05:42:23;;;;;;;5.00;2.80;;;;;;;29.56;32.17;97032.41;108048;1267;30968;-83
2022/05/16 05:44:55;;;;;;;4.90;2.50;;;;;;;30.05;30.91;97029.69;108168;1265;45482;-83
2022/05/16 05:47:26;;;;;;;5.10;2.80;;;;;;;30.74;30.66;97026.98;108044;1265;40123;-81
2022/05/16 05:49:59;;;;;;;5.60;2.70;;;;;;;31.54;30.04;97028.67;107912;1267;60693;-83
2022/05/16 05:52:30;;;;;;;5.70;3.00;;;;;;;32.21;28.63;97025.35;108010;1267;48836;-83
2022/05/16 05:55:01;;;;;;;5.60;2.60;;;;;;;32.55;28.04;97030.04;108037;1265;67296;-83
2022/05/16 05:57:33;;;;;;;5.00;2.60;;;;;;;32.78;27.45;97030.13;108031;1265;47179;-83
2022/05/16 06:00:06;;;;;;;5.50;2.60;;;;;;;33.03;27.09;97028.90;108085;1265;36870;-83
2022/05/16 06:02:40;;;;;;;5.70;2.40;;;;;;;32.78;25.94;97030.20;108092;1265;48436;-83
2022/05/16 06:05:15;;;;;;;4.80;2.30;;;;;;;32.68;26.29;97030.72;108060;1265;49352;-84
2022/05/16 06:07:46;;;;;;;3.70;2.10;;;;;;;32.82;25.58;97034.00;108081;1265;43368;-84
2022/05/16 06:10:17;;;;;;;6.50;2.60;;;;;;;33.22;25.32;97030.80;108065;1265;37811;-84
2022/05/16 06:12:49;;;;;;;5.00;2.80;;;;;;;33.42;25.32;97028.52;107949;1267;54288;-85
2022/05/16 06:15:20;;;;;;;3.80;2.50;;;;;;;33.82;25.44;97032.88;107944;1267;52079;-84
2022/05/16 06:17:51;;;;;;;4.20;2.60;;;;;;;34.53;24.98;97028.98;107990;1267;64981;-84
2022/05/16 06:20:22;;;;;;;5.80;2.90;;;;;;;34.45;24.35;97033.88;107995;1268;53336;-84
2022/05/16 06:22:54;;;;;;;3.80;2.10;;;;;;;34.72;23.90;97034.08;108040;1265;62579;-85
2022/05/16 06:25:32;;;;;;;5.20;2.30;;;;;;;34.69;23.41;97035.40;108048;1268;48507;-85
2022/05/16 06:28:07;;;;;;;4.60;3.20;;;;;;;34.94;23.40;97034.87;108030;1267;63821;-84
2022/05/16 06:30:40;;;;;;;5.20;3.10;;;;;;;35.24;22.83;97031.88;108014;1265;42465;-84
2022/05/16 06:33:12;;;;;;;5.10;2.90;;;;;;;35.62;23.20;97030.64;108219;1265;44322;-85
2022/05/16 06:35:44;;;;;;;4.40;3.00;;;;;;;36.22;22.23;97026.61;108078;1265;43856;-85
2022/05/16 06:38:16;;;;;;;4.00;3.10;;;;;;;36.68;21.44;97030.66;108178;1264;36107;-84
2022/05/16 06:40:48;;;;;;;4.50;3.10;;;;;;;36.18;21.09;97022.77;107976;1267;41832;-85
2022/05/16 06:43:22;;;;;;;3.70;2.70;;;;;;;36.20;21.65;97025.64;107992;1266;55161;-84
2022/05/16 06:45:54;;;;;;;3.70;2.30;;;;;;;36.73;21.60;97030.41;108122;1267;39117;-85
2022/05/16 06:48:25;;;;;;;4.00;2.20;;;;;;;36.48;20.84;97025.17;108073;1268;45889;-85
2022/05/16 06:50:57;;;;;;;5.60;2.20;;;;;;;36.61;20.66;97028.75;108063;1265;36901;-82
2022/05/16 06:53:31;;;;;;;4.00;2.00;;;;;;;36.09;20.42;97025.69;108083;1265;37609;-82
2022/05/16 06:56:03;;;;;;;4.30;1.90;;;;;;;36.14;20.96;97026.19;108058;1264;42239;-83
2022/05/16 06:58:34;;;;;;;4.00;1.60;;;;;;;36.39;20.35;97026.20;107884;1267;78989;-83
2022/05/16 07:01:06;;;;;;;1.90;1.20;;;;;;;36.57;20.90;97028.84;107898;1265;84486;-83
2022/05/16 07:03:40;;;;;;;2.60;1.60;;;;;;;37.10;19.79;97029.52;107864;1268;83223;-83
2022/05/16 07:06:14;;;;;;;2.90;1.50;;;;;;;37.29;19.83;97027.28;107972;1267;54565;-83
2022/05/16 07:08:45;;;;;;;2.80;1.30;;;;;;;37.18;19.37;97031.09;107996;1267;29482;-83
2022/05/16 07:11:16;;;;;;;3.50;1.30;;;;;;;37.71;19.32;97031.70;107864;1268;71019;-83
2022/05/16 07:13:47;;;;;;;2.70;1.40;;;;;;;38.66;18.93;97031.23;108063;1265;42436;-83
2022/05/16 07:16:18;;;;;;;4.20;1.70;;;;;;;39.56;18.68;97027.23;108062;1265;36884;-83
2022/05/16 07:18:49;;;;;;;4.50;1.40;;;;;;;38.48;17.01;97029.84;108008;1265;88491;-84
2022/05/16 07:21:20;;;;;;;2.80;1.30;;;;;;;37.99;17.47;97034.64;108107;1265;32604;-84
2022/05/16 07:23:52;;;;;;;2.50;1.30;;;;;;;38.36;17.73;97033.64;108073;1265;81104;-83
2022/05/16 07:29:12;;;;;;;2.10;1.00;;;;;;;36.58;16.95;97030.75;108057;1265;53074;-83
2022/05/16 07:31:43;;;;;;;1.70;0.90;;;;;;;35.97;17.19;97034.21;107988;1265;104739;-83
2022/05/16 07:34:15;;;;;;;1.50;0.90;;;;;;;34.64;17.24;97033.44;108101;1265;44197;-82
2022/05/16 07:36:46;;;;;;;3.60;0.90;;;;;;;33.96;18.07;97033.19;108120;1265;38399;-83
2022/05/16 07:39:17;;;;;;;1.30;0.80;;;;;;;34.91;18.38;97033.63;107924;1265;153791;-83
2022/05/16 07:41:49;;;;;;;1.80;1.00;;;;;;;36.25;17.70;97040.05;108110;1265;38567;-83
2022/05/16 07:44:20;;;;;;;2.20;1.10;;;;;;;36.11;16.47;97039.12;108081;1265;64265;-83
2022/05/16 07:46:51;;;;;;;3.60;1.00;;;;;;;35.87;17.62;97038.10;108084;1264;85726;-83
2022/05/16 07:49:22;;;;;;;2.80;1.20;;;;;;;37.06;17.39;97039.34;108063;1265;48253;-84
2022/05/16 07:51:53;;;;;;;2.40;1.10;;;;;;;38.30;17.46;97042.86;107850;1267;320973;-83
2022/05/16 07:54:24;;;;;;;3.30;1.10;;;;;;;38.89;16.03;97043.30;108164;1268;34152;-83
2022/05/16 07:56:55;;;;;;;3.00;0.90;;;;;;;38.38;16.45;97041.85;108153;1265;43516;-83
2022/05/16 07:59:26;;;;;;;3.60;1.20;;;;;;;39.03;16.68;97038.13;108070;1265;46461;-82
2022/05/16 08:01:57;;;;;;;3.50;1.40;;;;;;;40.25;16.44;97037.17;107943;1268;45994;-82
2022/05/16 08:04:28;;;;;;;2.40;1.50;;;;;;;39.87;15.43;97037.14;108072;1265;37321;-82
2022/05/16 08:06:59;;;;;;;4.50;1.30;;;;;;;39.93;16.54;97033.96;108090;1265;41139;-82
2022/05/16 08:12:25;;;;;;;5.40;1.70;;;;;;;40.89;14.75;97033.50;108066;1265;51407;-83
2022/05/16 08:14:56;;;;;;;5.00;1.40;;;;;;;41.48;15.33;97036.61;108241;1265;32820;-83
2022/05/16 08:17:27;;;;;;;5.50;1.70;;;;;;;41.83;15.34;97043.23;108135;1265;45044;-84
2022/05/16 08:19:58;;;;;;;4.80;1.60;;;;;;;42.61;15.22;97043.63;108148;1265;31977;-83
2022/05/16 08:22:33;;;;;;;2.80;1.40;;;;;;;43.62;14.80;97043.73;108044;1267;72990;-83
2022/05/16 08:25:05;;;;;;;2.10;1.60;;;;;;;43.91;14.36;97044.71;108094;1268;32546;-83
2022/05/16 08:27:36;;;;;;;2.30;1.60;;;;;;;44.07;14.44;97045.21;108174;1267;43837;-84
2022/05/16 08:30:10;;;;;;;2.70;1.80;;;;;;;43.58;13.26;97043.11;107962;1267;35202;-83
2022/05/16 08:32:42;;;;;;;4.10;1.70;;;;;;;42.82;13.55;97041.53;107995;1267;70223;-83
2022/05/16 08:35:15;;;;;;;2.20;1.60;;;;;;;42.01;14.32;97040.54;107983;1267;42198;-83
2022/05/16 08:40:47;;;;;;;3.30;1.60;;;;;;;42.78;13.43;97039.18;108142;1265;30081;-83
2022/05/16 08:43:32;;;;;;;2.00;1.50;;;;;;;40.74;14.62;97038.52;108118;1265;42724;-83
2022/05/16 08:46:12;;;;;;;3.30;1.30;;;;;;;41.00;15.29;97035.07;107936;1268;39525;-83
2022/05/16 08:48:49;;;;;;;2.50;1.30;;;;;;;41.26;14.58;97030.36;108005;1268;35342;-83
2022/05/16 08:51:24;;;;;;;2.90;1.10;;;;;;;41.59;14.63;97032.06;108111;1265;50688;-82
2022/05/16 08:54:07;;;;;;;2.70;1.20;;;;;;;42.19;14.81;97033.36;108101;1267;38831;-82
2022/05/16 08:56:45;;;;;;;3.00;1.40;;;;;;;42.20;14.36;97036.05;107854;1267;101606;-83
2022/05/16 08:59:21;;;;;;;2.90;1.20;;;;;;;42.25;14.30;97033.67;107931;1268;105887;-83
2022/05/16 09:01:55;;;;;;;3.00;1.30;;;;;;;41.78;14.10;97036.79;108148;1265;44899;-84
2022/05/16 09:04:30;;;;;;;3.60;1.30;;;;;;;41.02;15.22;97034.58;108105;1268;38280;-82
2022/05/16 09:07:14;;;;;;;2.60;1.40;;;;;;;40.09;15.12;97027.14;107992;1267;96380;-83
2022/05/16 09:09:52;;;;;;;2.60;1.30;;;;;;;36.71;15.36;97029.04;107916;1268;66699;-83
2022/05/16 09:12:30;;;;;;;6.20;1.50;;;;;;;33.28;17.93;97032.72;107947;1267;80070;-83
2022/05/16 09:15:13;;;;;;;3.60;1.30;;;;;;;31.71;19.36;97030.32;108001;1267;57962;-83
2022/05/16 09:18:02;;;;;;;3.30;1.30;;;;;;;30.57;19.90;97030.02;108001;1268;58507;-84
2022/05/16 09:20:43;;;;;;;3.60;1.30;;;;;;;28.23;21.13;97032.41;108141;1264;44122;-83
2022/05/16 09:23:25;;;;;;;4.30;1.60;;;;;;;26.38;23.20;97029.02;108062;1265;36605;-84
2022/05/16 09:26:08;;;;;;;3.50;1.50;;;;;;;25.36;25.97;97027.40;108131;1265;50928;-80
2022/05/16 09:28:46;;;;;;;4.00;1.30;;;;;;;24.92;25.71;97031.15;108139;1265;63367;-83
2022/05/16 09:31:23;;;;;;;2.30;1.20;;;;;;;24.58;26.10;97026.33;107871;1267;89818;-83
2022/05/16 09:33:57;;;;;;;4.10;1.80;;;;;;;24.39;26.64;97026.37;108179;1265;65712;-83
2022/05/16 09:36:33;;;;;;;4.80;1.40;;;;;;;23.49;27.72;97026.80;107926;1268;61642;-82
2022/05/16 09:39:06;;;;;;;4.10;1.50;;;;;;;22.69;28.59;97028.91;107964;1268;66235;-83
2022/05/16 09:41:46;;;;;;;3.20;1.50;;;;;;;22.67;29.14;97024.53;107992;1268;80823;-83
2022/05/16 09:44:27;;;;;;;3.10;1.40;;;;;;;22.47;28.82;97017.73;107972;1267;75914;-83
2022/05/16 09:47:36;;;;;;;2.20;1.20;;;;;;;22.40;30.25;97019.09;108040;1268;39484;-83
2022/05/16 09:50:14;;;;;;;2.00;1.50;;;;;;;22.25;29.74;97016.35;108110;1265;64194;-83
2022/05/16 09:52:48;;;;;;;3.10;1.10;;;;;;;22.40;29.82;97015.54;108038;1268;73334;-83
2022/05/16 09:55:30;;;;;;;4.10;1.40;;;;;;;22.13;30.09;97013.85;107914;1265;102513;-83
2022/05/16 09:58:04;;;;;;;4.20;1.50;;;;;;;22.31;30.66;97011.36;108142;1265;84435;-83
2022/05/16 10:00:42;;;;;;;2.70;1.20;;;;;;;22.53;30.83;97007.71;108180;1265;46142;-83
2022/05/16 10:03:34;;;;;;;2.40;1.10;;;;;;;22.47;31.43;97001.85;107926;1268;66031;-83
2022/05/16 10:06:08;;;;;;;4.70;1.70;;;;;;;22.50;30.92;97002.92;107778;1268;55457;-82
2022/05/16 10:08:48;;;;;;;5.90;1.50;;;;;;;22.06;30.58;97002.01;107893;1267;143315;-83
2022/05/16 10:11:23;;;;;;;2.50;1.30;;;;;;;22.19;31.49;97001.16;108091;1265;113967;-83
2022/05/16 10:13:55;;;;;;;4.50;1.40;;;;;;;21.88;30.83;97000.39;107983;1267;72982;-82
2022/05/16 10:16:30;;;;;;;2.80;1.30;;;;;;;21.65;31.57;96994.92;108189;1267;31517;-82
2022/05/16 10:19:05;;;;;;;4.10;1.30;;;;;;;21.39;31.02;96997.14;107957;1267;63696;-81
2022/05/16 10:21:41;;;;;;;3.70;1.40;;;;;;;21.35;31.03;96999.95;107951;1268;69157;-82
2022/05/16 10:24:14;;;;;;;3.80;1.50;;;;;;;21.66;31.11;97000.98;108077;1266;129213;-82
2022/05/16 10:26:49;;;;;;;4.20;1.60;;;;;;;21.81;31.71;97004.52;108098;1268;84045;-83
2022/05/16 10:29:24;;;;;;;3.80;1.20;;;;;;;21.72;30.81;97001.92;108276;1268;45309;-83
2022/05/16 10:34:54;;;;;;;3.00;1.00;;;;;;;21.51;31.98;96988.27;108239;1268;59609;-80
2022/05/16 10:37:26;;;;;;;3.00;1.30;;;;;;;21.47;32.64;96984.52;108123;1267;92173;-83
2022/05/16 10:40:05;;;;;;;3.20;1.30;;;;;;;21.53;32.41;96980.14;106764;1267;1814027;-83
2022/05/16 10:42:41;;;;;;;2.30;1.20;;;;;;;21.56;30.98;96982.33;108082;1267;97823;-83
2022/05/16 10:45:21;;;;;;;5.40;1.40;;;;;;;21.34;31.83;96977.74;108002;1267;49220;-83
2022/05/16 10:47:57;;;;;;;1.60;1.10;;;;;;;21.23;32.35;96977.89;107954;1268;170917;-83
2022/05/16 10:50:34;;;;;;;4.00;1.40;;;;;;;21.23;32.43;96978.85;108059;1267;85381;-82
2022/05/16 10:53:11;;;;;;;3.50;1.30;;;;;;;21.31;32.21;96976.42;108109;1268;55016;-82
2022/05/16 10:55:57;;;;;;;2.70;1.40;;;;;;;21.62;32.77;96975.66;107850;1268;135940;-82
2022/05/16 10:58:43;;;;;;;2.50;1.40;;;;;;;21.64;31.55;96977.00;108389;1268;67649;-79
2022/05/16 11:01:20;;;;;;;3.70;1.30;;;;;;;21.36;31.46;96978.25;108425;1268;42571;-82
2022/05/16 11:04:34;;;;;;;2.90;1.40;;;;;;;21.44;32.12;96978.03;108312;1268;33169;-82
2022/05/16 11:07:20;;;;;;;3.90;1.40;;;;;;;21.85;30.62;96979.04;106246;1268;2076949;-82
2022/05/16 11:10:01;;;;;;;4.10;1.30;;;;;;;22.02;32.44;96979.59;108052;1268;87646;-82
2022/05/16 11:12:38;;;;;;;2.70;1.30;;;;;;;22.42;31.56;96975.29;108073;1267;58621;-82
2022/05/16 11:15:20;;;;;;;2.30;1.00;;;;;;;22.38;30.95;96976.44;108085;1267;36353;-83
2022/05/16 11:17:57;;;;;;;4.20;1.50;;;;;;;22.54;32.03;96976.08;107900;1267;183866;-80
2022/05/16 11:20:32;;;;;;;3.20;1.00;;;;;;;22.81;32.01;96981.02;108230;1268;81129;-79
2022/05/16 11:23:12;;;;;;;4.80;1.40;;;;;;;22.97;31.18;96974.70;108138;1268;95124;-82
2022/05/16 11:25:49;;;;;;;2.30;1.30;;;;;;;22.87;30.55;96978.72;106974;1268;1384364;-79
2022/05/16 11:28:28;;;;;;;2.50;1.30;;;;;;;22.88;30.53;96981.75;106895;1268;1339153;-80
2022/05/16 11:31:02;;;;;;;4.20;1.30;;;;;;;22.93;30.30;96981.23;107931;1268;156131;-83
2022/05/16 11:33:44;;;;;;;6.10;1.60;;;;;;;22.92;30.34;96979.45;107281;1266;1253987;-82
2022/05/16 11:36:27;;;;;;;4.20;1.30;;;;;;;23.02;30.44;96980.01;106543;1268;2039050;-82
2022/05/16 11:39:10;;;;;;;2.70;1.30;;;;;;;23.12;30.46;96979.63;107807;1268;131202;-82
2022/05/16 11:41:55;;;;;;;3.20;1.40;;;;;;;23.00;30.35;96974.88;108306;1268;39858;-83
2022/05/16 11:44:31;;;;;;;4.50;1.40;;;;;;;23.20;30.59;96974.95;108259;1267;43344;-83
2022/05/16 11:47:16;;;;;;;4.60;1.20;;;;;;;23.41;31.08;96971.41;108268;1268;60598;-82
2022/05/16 11:49:55;;;;;;;3.10;1.40;;;;;;;23.52;30.58;96961.98;107843;1268;116072;-83
2022/05/16 11:52:40;;;;;;;4.70;1.70;;;;;;;23.66;30.42;96959.31;108003;1267;187246;-82
2022/05/16 12:01:03;;;;;;;3.50;1.30;;;;;;;23.51;28.82;96944.27;108095;1268;95213;-82
2022/05/16 12:03:40;;;;;;;4.50;1.10;;;;;;;23.24;30.10;96946.77;108071;1265;140599;-82
2022/05/16 12:06:34;;;;;;;2.80;1.30;;;;;;;23.44;30.52;96946.50;108116;1268;84378;-82
2022/05/16 12:09:20;;;;;;;3.40;1.40;;;;;;;23.56;31.07;96946.95;108021;1265;143897;-82
2022/05/16 12:11:55;;;;;;;4.50;1.30;;;;;;;23.81;30.76;96942.21;108175;1265;39653;-82
2022/05/16 12:14:32;;;;;;;2.60;1.40;;;;;;;23.68;29.83;96943.55;106607;1268;1885475;-82
2022/05/16 12:17:25;;;;;;;3.00;1.30;;;;;;;23.35;30.15;96938.27;108028;1267;151687;-82
2022/05/16 12:19:56;;;;;;;3.00;1.40;;;;;;;23.32;30.76;96939.83;107033;1268;1549785;-83
2022/05/16 12:22:49;;;;;;;3.50;1.20;;;;;;;23.53;30.76;96938.67;107661;1270;214779;-81
2022/05/16 12:25:33;;;;;;;4.90;1.60;;;;;;;23.73;30.89;96937.11;107823;1268;126392;-82
2022/05/16 12:28:34;;;;;;;4.00;1.60;;;;;;;23.55;29.00;96936.63;106663;1268;1821681;-81